createdAt,value
2022-11-24T00:01:20.765Z,99665.84
2022-11-24T00:03:56.280Z,99669.00
2022-11-24T00:06:23.433Z,99663.00
2022-11-24T00:08:50.151Z,99663.84
2022-11-24T00:11:19.392Z,99664.88
2022-11-24T00:13:46.525Z,99658.72
2022-11-24T00:16:19.945Z,99661.16
2022-11-24T00:18:49.242Z,99662.22
2022-11-24T00:21:17.432Z,99662.50
2022-11-24T00:23:44.786Z,99665.88
2022-11-24T00:26:14.887Z,99668.81
2022-11-24T00:28:43.182Z,99664.13
2022-11-24T00:31:28.971Z,99672.13
2022-11-24T00:33:57.566Z,99666.28
2022-11-24T00:36:25.762Z,99668.44
2022-11-24T00:38:58.053Z,99680.50
2022-11-24T00:41:25.974Z,99672.50
2022-11-24T00:43:52.988Z,99682.53
2022-11-24T00:46:20.279Z,99683.75
2022-11-24T00:48:47.186Z,99684.03
2022-11-24T00:51:15.695Z,99685.38
2022-11-24T00:53:42.965Z,99688.06
2022-11-24T00:56:10.601Z,99691.94
2022-11-24T00:58:37.417Z,99701.75
2022-11-24T01:01:06.404Z,99700.69
2022-11-24T01:03:33.822Z,99695.56
2022-11-24T01:06:05.676Z,99700.66
2022-11-24T01:08:32.557Z,99705.81
2022-11-24T01:11:13.814Z,99705.84
2022-11-24T01:13:41.599Z,99708.75
2022-11-24T01:16:21.735Z,99710.16
2022-11-24T01:18:48.560Z,99714.81
2022-11-24T01:21:15.829Z,99716.63
2022-11-24T01:23:42.499Z,99723.56
2022-11-24T01:26:11.318Z,99726.03
2022-11-24T01:28:41.881Z,99724.56
2022-11-24T01:31:12.038Z,99723.00
2022-11-24T01:33:39.174Z,99725.34
2022-11-24T01:36:06.462Z,99730.22
2022-11-24T01:38:32.915Z,99727.69
2022-11-24T01:41:14.161Z,99740.19
2022-11-24T01:43:42.306Z,99729.19
2022-11-24T01:46:24.380Z,99737.44
2022-11-24T01:49:11.663Z,99737.19
2022-11-24T01:52:11.482Z,99737.13
2022-11-24T01:54:44.023Z,99742.31
2022-11-24T01:57:17.261Z,99747.00
2022-11-24T01:59:48.308Z,99744.38
2022-11-24T02:02:19.469Z,99738.94
2022-11-24T02:04:47.050Z,99740.72
2022-11-24T02:07:14.506Z,99750.97
2022-11-24T02:09:48.963Z,99747.78
2022-11-24T02:12:15.429Z,99752.19
2022-11-24T02:14:43.358Z,99749.31
2022-11-24T02:17:10.270Z,99750.59
2022-11-24T02:19:39.380Z,99756.69
2022-11-24T02:22:13.924Z,99756.59
2022-11-24T02:25:03.632Z,99754.63
2022-11-24T02:27:30.818Z,99746.09
2022-11-24T02:29:57.396Z,99752.34
2022-11-24T02:32:23.976Z,99752.66
2022-11-24T02:34:50.518Z,99756.22
2022-11-24T02:37:16.954Z,99756.94
2022-11-24T02:39:43.373Z,99756.47
2022-11-24T02:42:13.565Z,99766.31
2022-11-24T02:44:45.407Z,99764.91
2022-11-24T02:47:12.925Z,99755.66
2022-11-24T02:49:39.900Z,99749.06
2022-11-24T02:52:06.699Z,99759.94
2022-11-24T02:54:33.381Z,99755.28
2022-11-24T02:57:00.151Z,99756.41
2022-11-24T02:59:26.621Z,99757.53
2022-11-24T03:01:53.090Z,99757.69
2022-11-24T03:04:19.531Z,99757.84
2022-11-24T03:06:46.091Z,99757.19
2022-11-24T03:09:12.556Z,99757.59
2022-11-24T03:11:39.256Z,99759.56
2022-11-24T03:14:06.593Z,99761.13
2022-11-24T03:16:33.197Z,99761.88
2022-11-24T03:19:00.394Z,99762.59
2022-11-24T03:21:27.243Z,99768.19
2022-11-24T03:23:54.287Z,99763.09
2022-11-24T03:26:22.310Z,99768.75
2022-11-24T03:28:49.097Z,99775.03
2022-11-24T03:31:16.068Z,99774.47
2022-11-24T03:33:42.601Z,99776.72
2022-11-24T03:36:09.664Z,99774.56
2022-11-24T03:38:36.335Z,99779.66
2022-11-24T03:41:02.795Z,99781.97
2022-11-24T03:43:29.271Z,99778.59
2022-11-24T03:45:55.785Z,99787.78
2022-11-24T03:48:22.413Z,99784.41
2022-11-24T03:50:56.686Z,99789.75
2022-11-24T03:53:24.827Z,99785.47
2022-11-24T03:55:51.515Z,99790.13
2022-11-24T03:58:18.184Z,99789.38
2022-11-24T04:00:44.956Z,99788.34
2022-11-24T04:03:11.615Z,99794.25
2022-11-24T04:05:38.215Z,99797.34
2022-11-24T04:08:05.415Z,99794.63
2022-11-24T04:10:33.700Z,99798.84
2022-11-24T04:13:00.140Z,99792.66
2022-11-24T04:15:26.647Z,99802.34
2022-11-24T04:17:55.241Z,99798.84
2022-11-24T04:20:22.164Z,99804.88
2022-11-24T04:22:51.137Z,99811.34
2022-11-24T04:25:17.805Z,99808.91
2022-11-24T04:27:44.310Z,99802.13
2022-11-24T04:30:10.956Z,99809.00
2022-11-24T04:32:37.411Z,99812.38
2022-11-24T04:35:04.491Z,99816.59
2022-11-24T04:37:30.967Z,99826.09
2022-11-24T04:39:57.395Z,99821.59
2022-11-24T04:42:23.853Z,99823.00
2022-11-24T04:44:50.308Z,99832.84
2022-11-24T04:47:22.810Z,99831.19
2022-11-24T04:49:50.055Z,99829.22
2022-11-24T04:52:17.763Z,99832.00
2022-11-24T04:54:44.241Z,99843.25
2022-11-24T04:57:17.190Z,99841.75
2022-11-24T04:59:44.107Z,99843.47
2022-11-24T05:02:11.369Z,99842.34
2022-11-24T05:04:38.193Z,99850.97
2022-11-24T05:07:05.151Z,99855.47
2022-11-24T05:09:55.034Z,99859.34
2022-11-24T05:12:18.039Z,99858.66
2022-11-24T05:14:44.496Z,99861.22
2022-11-24T05:17:11.013Z,99864.22
2022-11-24T05:19:37.445Z,99860.78
2022-11-24T05:22:03.911Z,99867.22
2022-11-24T05:24:30.448Z,99863.66
2022-11-24T05:26:56.930Z,99871.66
2022-11-24T05:29:23.363Z,99866.97
2022-11-24T05:31:49.884Z,99874.94
2022-11-24T05:34:17.370Z,99875.69
2022-11-24T05:36:52.937Z,99882.72
2022-11-24T05:39:20.032Z,99885.09
2022-11-24T05:41:46.568Z,99883.38
2022-11-24T05:44:13.266Z,99889.41
2022-11-24T05:46:40.155Z,99891.66
2022-11-24T05:49:06.720Z,99902.69
2022-11-24T05:51:33.402Z,99902.78
2022-11-24T05:53:59.859Z,99904.69
2022-11-24T05:56:26.330Z,99900.75
2022-11-24T05:58:52.902Z,99908.09
2022-11-24T06:01:19.348Z,99905.47
2022-11-24T06:03:45.792Z,99905.13
2022-11-24T06:06:12.301Z,99920.63
2022-11-24T06:08:38.748Z,99917.16
2022-11-24T06:11:20.435Z,99920.31
2022-11-24T06:13:48.572Z,99924.63
2022-11-24T06:16:15.591Z,99926.69
2022-11-24T06:18:42.156Z,99930.22
2022-11-24T06:21:11.603Z,99931.25
2022-11-24T06:23:39.490Z,99932.00
2022-11-24T06:26:06.304Z,99940.81
2022-11-24T06:28:32.861Z,99931.34
2022-11-24T06:31:04.231Z,99936.25
2022-11-24T06:33:33.356Z,99943.28
2022-11-24T06:36:05.024Z,99941.75
2022-11-24T06:38:32.042Z,99948.44
2022-11-24T06:41:07.375Z,99950.88
2022-11-24T06:43:34.814Z,99955.13
2022-11-24T06:46:01.874Z,99955.31
2022-11-24T06:48:28.713Z,99956.72
2022-11-24T06:50:59.582Z,99962.66
2022-11-24T06:53:26.316Z,99955.50
2022-11-24T06:55:53.361Z,99957.38
2022-11-24T06:58:19.824Z,99965.38
2022-11-24T07:00:46.337Z,99963.25
2022-11-24T07:03:16.724Z,99968.31
2022-11-24T07:05:43.915Z,99966.69
2022-11-24T07:08:14.690Z,99974.69
2022-11-24T07:10:44.137Z,99970.19
2022-11-24T07:13:10.643Z,99969.81
2022-11-24T07:15:37.393Z,99972.34
2022-11-24T07:18:04.292Z,99978.56
2022-11-24T07:20:30.770Z,99980.09
2022-11-24T07:22:58.356Z,99980.84
2022-11-24T07:25:25.851Z,99990.91
2022-11-24T07:27:59.485Z,99990.41
2022-11-24T07:30:27.405Z,99996.63
2022-11-24T07:33:03.958Z,99998.25
2022-11-24T07:35:30.761Z,100001.31
2022-11-24T07:37:58.784Z,99998.84
2022-11-24T07:40:27.173Z,100004.09
2022-11-24T07:42:54.103Z,100009.34
2022-11-24T07:45:21.091Z,100000.03
2022-11-24T07:47:47.640Z,100000.63
2022-11-24T07:50:14.205Z,100006.44
2022-11-24T07:52:40.834Z,100004.56
2022-11-24T07:55:08.001Z,100013.34
2022-11-24T07:57:34.849Z,100014.09
2022-11-24T08:00:01.489Z,100008.44
2022-11-24T08:02:31.113Z,100006.34
2022-11-24T08:04:57.599Z,100005.69
2022-11-24T08:07:24.355Z,100004.56
2022-11-24T08:09:52.091Z,100012.50
2022-11-24T08:12:21.752Z,100015.41
2022-11-24T08:14:50.329Z,100015.31
2022-11-24T08:17:19.921Z,100015.88
2022-11-24T08:19:46.379Z,100014.56
2022-11-24T08:22:12.828Z,100020.78
2022-11-24T08:24:45.928Z,100017.00
2022-11-24T08:27:13.389Z,100018.59
2022-11-24T08:29:39.850Z,100024.25
2022-11-24T08:32:06.572Z,100015.97
2022-11-24T08:34:33.399Z,100013.16
2022-11-24T08:36:59.978Z,100023.59
2022-11-24T08:39:26.398Z,100027.72
2022-11-24T08:41:52.840Z,100024.72
2022-11-24T08:44:19.351Z,100025.28
2022-11-24T08:46:46.477Z,100023.88
2022-11-24T08:49:14.995Z,100029.59
2022-11-24T08:51:41.835Z,100025.75
2022-11-24T08:54:10.236Z,100028.75
2022-11-24T08:56:36.711Z,100024.25
2022-11-24T08:59:03.293Z,100030.53
2022-11-24T09:01:32.980Z,100030.91
2022-11-24T09:03:59.573Z,100036.19
2022-11-24T09:06:30.129Z,100035.53
2022-11-24T09:08:57.703Z,100038.25
2022-11-24T09:11:25.603Z,100033.06
2022-11-24T09:13:53.330Z,100035.06
2022-11-24T09:16:22.654Z,100034.50
2022-11-24T09:18:55.690Z,100035.63
2022-11-24T09:21:22.516Z,100030.53
2022-11-24T09:23:50.592Z,100038.41
2022-11-24T09:26:22.672Z,100039.53
2022-11-24T09:28:49.268Z,100042.53
2022-11-24T09:31:17.529Z,100042.69
2022-11-24T09:33:45.282Z,100039.97
2022-11-24T09:36:12.182Z,100039.41
2022-11-24T09:38:38.718Z,100044.28
2022-11-24T09:41:24.637Z,100046.19
2022-11-24T09:44:21.003Z,100053.72
2022-11-24T09:47:00.670Z,100052.22
2022-11-24T09:49:33.353Z,100062.41
2022-11-24T09:52:07.712Z,100060.72
2022-11-24T09:54:34.581Z,100064.22
2022-11-24T09:57:04.074Z,100057.94
2022-11-24T09:59:30.718Z,100063.38
2022-11-24T10:01:57.262Z,100057.84
2022-11-24T10:04:41.951Z,100065.38
2022-11-24T10:07:21.117Z,100056.16
2022-11-24T10:10:25.440Z,100053.38
2022-11-24T10:13:06.681Z,100052.28
2022-11-24T10:15:49.635Z,100054.53
2022-11-24T10:18:21.882Z,100055.78
2022-11-24T10:20:54.792Z,100061.19
2022-11-24T10:23:49.140Z,100062.81
2022-11-24T10:26:33.870Z,100062.44
2022-11-24T10:29:08.765Z,100060.44
2022-11-24T10:31:42.459Z,100065.88
2022-11-24T10:34:25.063Z,100069.72
2022-11-24T10:37:16.987Z,100077.06
2022-11-24T10:40:00.233Z,100067.09
2022-11-24T10:42:33.410Z,100068.00
2022-11-24T10:45:19.794Z,100071.38
2022-11-24T10:47:46.559Z,100070.59
2022-11-24T10:50:32.598Z,100059.91
2022-11-24T10:53:08.381Z,100059.78
2022-11-24T10:55:57.918Z,100061.34
2022-11-24T10:58:35.848Z,100050.41
2022-11-24T11:01:13.376Z,100052.50
2022-11-24T11:03:49.400Z,100056.00
2022-11-24T11:06:25.325Z,100055.25
2022-11-24T11:09:07.252Z,100061.41
2022-11-24T11:11:41.777Z,100054.84
2022-11-24T11:14:11.117Z,100052.41
2022-11-24T11:16:53.819Z,100052.34
2022-11-24T11:20:01.680Z,100061.13
2022-11-24T11:22:28.959Z,100064.03
2022-11-24T11:25:10.642Z,100056.13
2022-11-24T11:27:38.612Z,100058.94
2022-11-24T11:36:11.074Z,100066.63
2022-11-24T11:38:39.398Z,100056.06
2022-11-24T11:41:10.805Z,100061.34
2022-11-24T11:43:40.951Z,100066.31
2022-11-24T11:46:13.190Z,100068.66
2022-11-24T11:48:44.776Z,100075.03
2022-11-24T11:51:45.383Z,100065.47
2022-11-24T11:54:37.515Z,100058.63
2022-11-24T11:57:11.659Z,100069.00
2022-11-24T11:59:47.323Z,100072.25
2022-11-24T12:02:58.789Z,100075.97
2022-11-24T12:05:51.676Z,100069.69
2022-11-24T12:08:24.080Z,100064.19
2022-11-24T12:11:19.658Z,100058.16
2022-11-24T12:14:06.418Z,100070.47
2022-11-24T12:16:46.488Z,100065.97
2022-11-24T12:19:31.098Z,100071.78
2022-11-24T12:22:13.645Z,100069.03
2022-11-24T12:24:50.582Z,100078.69
2022-11-24T12:27:23.514Z,100078.25
2022-11-24T12:29:55.567Z,100067.34
2022-11-24T12:33:05.422Z,100078.53
2022-11-24T12:35:54.363Z,100080.19
2022-11-24T12:38:39.590Z,100077.03
2022-11-24T12:44:36.637Z,100085.88
2022-11-24T12:47:21.415Z,100081.22
2022-11-24T12:49:56.921Z,100082.75
2022-11-24T12:52:35.021Z,100086.97
2022-11-24T12:55:03.205Z,100077.47
2022-11-24T12:57:51.258Z,100089.94
2022-11-24T13:00:23.768Z,100091.22
2022-11-24T13:03:08.959Z,100095.38
2022-11-24T13:05:43.619Z,100089.91
2022-11-24T13:08:10.222Z,100104.69
2022-11-24T13:10:56.325Z,100100.50
2022-11-24T13:13:29.764Z,100097.50
2022-11-24T13:19:02.463Z,100099.91
2022-11-24T13:21:33.259Z,100097.47
2022-11-24T13:24:06.114Z,100103.56
2022-11-24T13:26:41.502Z,100099.25
2022-11-24T13:29:26.994Z,100106.28
2022-11-24T13:32:02.565Z,100103.19
2022-11-24T13:34:45.526Z,100109.69
2022-11-24T13:37:32.118Z,100107.03
2022-11-24T13:40:03.038Z,100117.63
2022-11-24T13:42:41.688Z,100120.69
2022-11-24T13:45:41.692Z,100126.09
2022-11-24T13:48:46.773Z,100122.59
2022-11-24T13:51:22.587Z,100120.38
2022-11-24T13:53:50.623Z,100130.13
2022-11-24T13:56:16.993Z,100124.53
2022-11-24T13:58:50.520Z,100122.63
2022-11-24T14:01:21.810Z,100125.84
2022-11-24T14:04:28.620Z,100131.44
2022-11-24T14:06:51.392Z,100131.13
2022-11-24T14:09:26.770Z,100131.72
2022-11-24T14:12:16.322Z,100138.56
2022-11-24T14:14:44.500Z,100147.19
2022-11-24T14:17:14.573Z,100140.44
2022-11-24T14:19:42.975Z,100145.41
2022-11-24T14:22:20.943Z,100159.72
2022-11-24T14:24:56.399Z,100154.38
2022-11-24T14:27:36.884Z,100157.34
2022-11-24T14:30:18.460Z,100156.44
2022-11-24T14:33:03.816Z,100161.28
2022-11-24T14:35:32.693Z,100163.09
2022-11-24T14:38:02.158Z,100166.03
2022-11-24T14:40:46.548Z,100165.28
2022-11-24T14:43:33.629Z,100169.97
2022-11-24T14:46:09.945Z,100176.09
2022-11-24T14:48:39.101Z,100180.28
2022-11-24T14:51:10.468Z,100192.47
2022-11-24T14:53:41.830Z,100187.91
2022-11-24T14:56:09.685Z,100193.53
2022-11-24T14:58:41.864Z,100194.59
2022-11-24T15:01:30.241Z,100194.47
2022-11-24T15:07:24.285Z,100206.78
2022-11-24T15:09:55.151Z,100203.50
2022-11-24T15:12:31.482Z,100210.47
2022-11-24T15:15:01.990Z,100209.53
2022-11-24T15:17:29.845Z,100215.03
2022-11-24T15:20:17.325Z,100210.81
2022-11-24T15:22:44.854Z,100215.03
2022-11-24T15:25:32.613Z,100226.25
2022-11-24T15:28:00.347Z,100219.47
2022-11-24T15:30:26.868Z,100223.84
2022-11-24T15:32:56.236Z,100226.59
2022-11-24T15:35:25.085Z,100224.78
2022-11-24T15:37:52.111Z,100229.34
2022-11-24T15:40:19.234Z,100233.09
2022-11-24T15:42:56.210Z,100238.03
2022-11-24T15:45:25.036Z,100234.75
2022-11-24T15:47:51.746Z,100245.53
2022-11-24T15:50:18.861Z,100239.72
2022-11-24T15:52:46.592Z,100239.13
2022-11-24T15:55:18.348Z,100248.00
2022-11-24T15:57:44.969Z,100251.50
2022-11-24T16:00:20.642Z,100247.78
2022-11-24T16:02:47.231Z,100253.09
2022-11-24T16:05:15.126Z,100248.13
2022-11-24T16:07:42.053Z,100246.53
2022-11-24T16:10:21.553Z,100251.09
2022-11-24T16:12:47.995Z,100256.50
2022-11-24T16:15:14.619Z,100264.56
2022-11-24T16:17:41.067Z,100263.28
2022-11-24T16:20:07.924Z,100262.53
2022-11-24T16:22:34.379Z,100270.59
2022-11-24T16:25:00.935Z,100274.09
2022-11-24T16:27:27.376Z,100275.03
2022-11-24T16:29:53.821Z,100266.03
2022-11-24T16:32:20.314Z,100276.75
2022-11-24T16:34:46.747Z,100274.53
2022-11-24T16:37:13.486Z,100278.88
2022-11-24T16:39:39.909Z,100273.66
2022-11-24T16:42:06.445Z,100277.19
2022-11-24T16:44:34.572Z,100281.63
2022-11-24T16:47:01.254Z,100285.22
2022-11-24T16:49:27.714Z,100282.59
2022-11-24T16:51:54.151Z,100289.56
2022-11-24T16:54:20.892Z,100288.94
2022-11-24T16:56:47.355Z,100287.25
2022-11-24T16:59:13.800Z,100290.09
2022-11-24T17:01:40.734Z,100295.28
2022-11-24T17:04:12.419Z,100305.88
2022-11-24T17:06:39.657Z,100299.09
2022-11-24T17:09:06.267Z,100302.69
2022-11-24T17:11:32.861Z,100300.91
2022-11-24T17:13:59.341Z,100299.94
2022-11-24T17:16:27.069Z,100307.88
2022-11-24T17:18:53.944Z,100305.97
2022-11-24T17:21:22.658Z,100308.75
2022-11-24T17:24:05.326Z,100306.09
2022-11-24T17:26:33.008Z,100314.16
2022-11-24T17:28:59.457Z,100317.72
2022-11-24T17:31:25.890Z,100319.53
2022-11-24T17:33:55.081Z,100321.44
2022-11-24T17:36:22.181Z,100318.88
2022-11-24T17:38:51.834Z,100315.31
2022-11-24T17:41:19.395Z,100315.50
2022-11-24T17:43:53.174Z,100323.66
2022-11-24T17:46:19.981Z,100328.72
2022-11-24T17:48:46.919Z,100318.69
2022-11-24T17:51:16.779Z,100321.75
2022-11-24T17:53:45.420Z,100333.94
2022-11-24T17:56:17.499Z,100339.00
2022-11-24T17:58:44.836Z,100338.25
2022-11-24T18:01:12.809Z,100346.53
2022-11-24T18:03:40.438Z,100344.22
2022-11-24T18:06:17.203Z,100350.31
2022-11-24T18:08:45.801Z,100348.41
2022-11-24T18:11:19.777Z,100350.13
2022-11-24T18:14:02.943Z,100353.31
2022-11-24T18:16:34.324Z,100361.69
2022-11-24T18:19:11.326Z,100363.28
2022-11-24T18:21:40.189Z,100360.72
2022-11-24T18:24:08.104Z,100365.81
2022-11-24T18:26:34.824Z,100363.91
2022-11-24T18:29:01.372Z,100362.63
2022-11-24T18:31:29.281Z,100366.88
2022-11-24T18:33:55.820Z,100356.81
2022-11-24T18:36:30.069Z,100356.91
2022-11-24T18:39:00.593Z,100363.16
2022-11-24T18:41:27.105Z,100355.44
2022-11-24T18:43:53.577Z,100358.84
2022-11-24T18:46:20.124Z,100358.41
2022-11-24T18:48:47.098Z,100368.56
2022-11-24T18:51:16.709Z,100364.31
2022-11-24T18:53:45.721Z,100365.91
2022-11-24T18:56:16.978Z,100361.91
2022-11-24T18:58:44.015Z,100365.63
2022-11-24T19:01:13.709Z,100360.72
2022-11-24T19:03:48.110Z,100355.84
2022-11-24T19:06:18.774Z,100363.06
2022-11-24T19:08:46.121Z,100366.47
2022-11-24T19:11:20.144Z,100368.03
2022-11-24T19:13:47.663Z,100364.56
2022-11-24T19:16:15.081Z,100364.88
2022-11-24T19:18:41.913Z,100360.53
2022-11-24T19:21:08.870Z,100369.84
2022-11-24T19:23:35.429Z,100379.06
2022-11-24T19:26:03.219Z,100378.00
2022-11-24T19:28:29.705Z,100376.84
2022-11-24T19:31:11.736Z,100385.31
2022-11-24T19:33:39.038Z,100377.56
2022-11-24T19:36:08.530Z,100386.06
2022-11-24T19:38:35.424Z,100381.28
2022-11-24T19:41:11.020Z,100385.19
2022-11-24T19:43:37.983Z,100387.72
2022-11-24T19:46:06.923Z,100391.13
2022-11-24T19:48:35.805Z,100393.88
2022-11-24T19:51:04.385Z,100394.75
2022-11-24T19:53:31.600Z,100393.38
2022-11-24T19:56:03.885Z,100402.69
2022-11-24T19:58:30.445Z,100400.44
2022-11-24T20:00:56.965Z,100404.78
2022-11-24T20:03:23.437Z,100407.13
2022-11-24T20:05:56.425Z,100414.44
2022-11-24T20:08:22.903Z,100419.91
2022-11-24T20:10:49.430Z,100413.81
2022-11-24T20:13:15.910Z,100416.44
2022-11-24T20:15:42.335Z,100414.75
2022-11-24T20:18:08.833Z,100416.44
2022-11-24T20:20:35.271Z,100419.09
2022-11-24T20:23:01.709Z,100426.28
2022-11-24T20:25:28.139Z,100428.09
2022-11-24T20:27:55.823Z,100426.41
2022-11-24T20:30:22.271Z,100434.34
2022-11-24T20:32:48.738Z,100436.13
2022-11-24T20:35:18.336Z,100435.56
2022-11-24T20:37:45.050Z,100435.06
2022-11-24T20:40:11.748Z,100438.44
2022-11-24T20:42:38.210Z,100445.44
2022-11-24T20:45:04.978Z,100443.84
2022-11-24T20:47:31.500Z,100449.34
2022-11-24T20:49:57.928Z,100450.81
2022-11-24T20:52:24.395Z,100439.31
2022-11-24T20:54:50.823Z,100449.97
2022-11-24T20:57:17.269Z,100448.06
2022-11-24T20:59:43.751Z,100447.25
2022-11-24T21:02:10.891Z,100455.25
2022-11-24T21:04:37.724Z,100448.59
2022-11-24T21:07:04.582Z,100450.19
2022-11-24T21:09:31.066Z,100456.41
2022-11-24T21:11:57.509Z,100452.09
2022-11-24T21:14:24.419Z,100456.53
2022-11-24T21:16:50.940Z,100463.31
2022-11-24T21:19:18.612Z,100465.63
2022-11-24T21:21:47.344Z,100462.44
2022-11-24T21:24:15.786Z,100470.56
2022-11-24T21:26:43.264Z,100467.91
2022-11-24T21:29:13.052Z,100473.88
2022-11-24T21:31:40.020Z,100459.97
2022-11-24T21:34:08.186Z,100465.53
2022-11-24T21:36:35.846Z,100462.69
2022-11-24T21:39:03.636Z,100469.41
2022-11-24T21:41:32.908Z,100467.00
2022-11-24T21:43:59.735Z,100458.66
2022-11-24T21:46:27.945Z,100462.56
2022-11-24T21:48:54.377Z,100472.41
2022-11-24T21:51:21.025Z,100474.13
2022-11-24T21:53:47.918Z,100474.75
2022-11-24T21:56:16.976Z,100469.66
2022-11-24T21:58:54.940Z,100479.31
2022-11-24T22:01:22.731Z,100476.66
2022-11-24T22:03:49.927Z,100471.66
2022-11-24T22:06:19.075Z,100483.34
2022-11-24T22:08:46.739Z,100478.03
2022-11-24T22:11:15.874Z,100482.47
2022-11-24T22:13:43.314Z,100482.28
2022-11-24T22:16:16.108Z,100477.28
2022-11-24T22:18:44.423Z,100480.59
2022-11-24T22:21:16.507Z,100482.69
2022-11-24T22:23:43.732Z,100486.09
2022-11-24T22:26:12.380Z,100486.28
2022-11-24T22:28:39.256Z,100488.41
2022-11-24T22:31:07.846Z,100488.50
2022-11-24T22:33:34.692Z,100487.47
2022-11-24T22:36:02.302Z,100491.16
2022-11-24T22:38:30.112Z,100486.72
2022-11-24T22:41:11.227Z,100490.69
2022-11-24T22:43:39.672Z,100494.84
2022-11-24T22:46:08.998Z,100497.84
2022-11-24T22:48:35.547Z,100492.44
2022-11-24T22:51:10.599Z,100497.53
2022-11-24T22:53:37.563Z,100501.84
2022-11-24T22:56:12.265Z,100500.72
2022-11-24T22:58:39.798Z,100504.00
2022-11-24T23:01:08.963Z,100506.34
2022-11-24T23:03:36.686Z,100503.38
2022-11-24T23:06:05.789Z,100501.47
2022-11-24T23:08:34.141Z,100508.56
2022-11-24T23:11:06.077Z,100508.78
2022-11-24T23:13:32.971Z,100512.38
2022-11-24T23:16:08.429Z,100516.63
2022-11-24T23:18:35.110Z,100513.13
2022-11-24T23:21:11.874Z,100518.72
2022-11-24T23:23:38.710Z,100512.91
2022-11-24T23:26:07.788Z,100504.66
2022-11-24T23:28:34.558Z,100507.50
2022-11-24T23:31:06.740Z,100513.75
2022-11-24T23:33:33.453Z,100515.34
2022-11-24T23:36:05.232Z,100511.44
2022-11-24T23:38:32.867Z,100505.28
2022-11-24T23:41:01.303Z,100507.19
2022-11-24T23:43:27.750Z,100510.34
2022-11-24T23:45:54.320Z,100512.81
2022-11-24T23:48:20.940Z,100510.06
2022-11-24T23:50:47.361Z,100517.78
2022-11-24T23:53:13.829Z,100524.22
2022-11-24T23:55:40.254Z,100521.69
2022-11-24T23:58:07.146Z,100518.53
